Time;durP1;ratioP1;P1;durP2;ratioP2;P2;SDS_P1;SDS_P2;PMS_P1;PMS_P2;Temp;Humidity;BMP_temperature;BMP_pressure;BME280_temperature;BME280_humidity;BME280_pressure;Samples;Min_cycle;Max_cycle;Signal;HPM_P1;HPM_P2
2021/08/30 00:01:53;;;;;;;;;;;;;;;17.53;100.00;96034.72;5017668;28;19992;-63
2021/08/30 00:04:21;;;;;;;;;;;;;;;17.37;100.00;96027.03;5014973;28;20645;-63
2021/08/30 00:06:49;;;;;;;;;;;;;;;17.52;100.00;96029.59;5024176;28;20402;-63
2021/08/30 00:09:19;;;;;;;;;;;;;;;17.14;100.00;96024.69;5027108;28;19968;-64
2021/08/30 00:11:47;;;;;;;;;;;;;;;17.33;100.00;96026.59;5020877;28;19960;-63
2021/08/30 00:14:15;;;;;;;;;;;;;;;17.03;100.00;96019.88;5024255;28;20051;-63
2021/08/30 00:16:43;;;;;;;;;;;;;;;17.36;100.00;96029.91;5025571;28;20822;-63
2021/08/30 00:19:11;;;;;;;;;;;;;;;17.23;100.00;96020.00;5034212;28;20002;-62
2021/08/30 00:21:39;;;;;;;;;;;;;;;17.04;100.00;96017.03;5049213;28;20201;-62
2021/08/30 00:24:07;;;;;;;;;;;;;;;16.78;100.00;96015.00;5042339;28;19968;-62
2021/08/30 00:26:36;;;;;;;;;;;;;;;17.28;100.00;96015.72;5046851;28;20004;-61
2021/08/30 00:29:04;;;;;;;;;;;;;;;17.29;100.00;96014.69;5020963;28;20370;-63
2021/08/30 00:31:32;;;;;;;;;;;;;;;17.31;100.00;96019.84;5041105;28;19983;-63
2021/08/30 00:34:00;;;;;;;;;;;;;;;17.39;100.00;96009.00;5045297;28;19986;-59
2021/08/30 00:36:29;;;;;;;;;;;;;;;17.15;100.00;96012.16;5044282;28;20362;-56
2021/08/30 00:38:57;;;;;;;;;;;;;;;17.09;100.00;96009.25;5043895;28;19974;-63
2021/08/30 00:41:26;;;;;;;;;;;;;;;17.33;100.00;96021.28;5049219;28;19968;-62
2021/08/30 00:43:55;;;;;;;;;;;;;;;17.44;100.00;96017.22;5041552;28;19975;-60
2021/08/30 00:46:23;;;;;;;;;;;;;;;17.60;100.00;96015.25;5043676;28;20363;-62
2021/08/30 00:48:51;;;;;;;;;;;;;;;17.57;100.00;96019.13;5046441;28;19975;-61
2021/08/30 00:51:20;;;;;;;;;;;;;;;18.00;100.00;96010.91;5042774;28;19952;-62
2021/08/30 00:53:48;;;;;;;;;;;;;;;17.71;100.00;96007.50;5042319;28;19972;-62
2021/08/30 00:56:17;;;;;;;;;;;;;;;17.74;100.00;96015.09;5046181;28;19972;-62
2021/08/30 00:58:45;;;;;;;;;;;;;;;17.78;100.00;96008.34;5046540;28;19967;-61
2021/08/30 01:01:15;;;;;;;;;;;;;;;17.56;100.00;95998.84;5043444;28;19967;-63
2021/08/30 01:03:43;;;;;;;;;;;;;;;17.40;100.00;96009.84;5043821;28;19964;-63
2021/08/30 01:06:14;;;;;;;;;;;;;;;17.90;100.00;95999.78;5044262;28;19971;-63
2021/08/30 01:08:43;;;;;;;;;;;;;;;17.89;100.00;96006.13;5045996;28;20410;-62
2021/08/30 01:11:13;;;;;;;;;;;;;;;17.87;100.00;96002.84;5045201;28;19968;-62
2021/08/30 01:13:44;;;;;;;;;;;;;;;17.67;100.00;96000.91;5045480;28;20426;-61
2021/08/30 01:16:13;;;;;;;;;;;;;;;17.44;100.00;96000.41;5043186;28;20358;-62
2021/08/30 01:18:42;;;;;;;;;;;;;;;17.72;100.00;95995.81;5046225;28;19975;-62
2021/08/30 01:21:15;;;;;;;;;;;;;;;17.30;100.00;96002.19;5040158;28;19967;-61
2021/08/30 01:23:44;;;;;;;;;;;;;;;17.11;100.00;95995.75;5044533;28;19968;-60
2021/08/30 01:26:13;;;;;;;;;;;;;;;17.33;100.00;95991.16;5046048;28;20433;-63
2021/08/30 01:28:42;;;;;;;;;;;;;;;17.09;100.00;95989.78;5045050;28;19964;-61
2021/08/30 01:31:11;;;;;;;;;;;;;;;17.46;100.00;95993.88;5037994;28;20410;-62
2021/08/30 01:33:41;;;;;;;;;;;;;;;17.27;100.00;95994.59;5046981;28;19960;-62
2021/08/30 01:36:09;;;;;;;;;;;;;;;17.27;100.00;95981.25;5041429;28;20450;-63
2021/08/30 01:38:39;;;;;;;;;;;;;;;17.00;100.00;95989.16;5042386;28;19968;-59
2021/08/30 01:41:07;;;;;;;;;;;;;;;17.12;100.00;95988.59;5045794;28;20411;-62
2021/08/30 01:43:35;;;;;;;;;;;;;;;17.19;100.00;95995.59;5046508;28;19968;-60
2021/08/30 01:46:03;;;;;;;;;;;;;;;17.61;100.00;95987.56;5044332;28;19967;-63
2021/08/30 01:48:31;;;;;;;;;;;;;;;17.43;100.00;95982.78;5045489;28;20406;-62
2021/08/30 01:51:01;;;;;;;;;;;;;;;17.21;100.00;95987.41;5044705;28;19964;-62
2021/08/30 01:53:29;;;;;;;;;;;;;;;17.25;100.00;95991.31;5046671;28;19972;-61
2021/08/30 01:56:00;;;;;;;;;;;;;;;17.07;100.00;95986.53;5044469;28;21257;-62
2021/08/30 02:01:14;;;;;;;;;;;;;;;16.92;100.00;95981.28;5048196;28;19972;-63
2021/08/30 02:03:42;;;;;;;;;;;;;;;17.43;100.00;95977.44;5044580;28;19929;-62
2021/08/30 02:06:12;;;;;;;;;;;;;;;17.19;100.00;95981.44;5047751;28;19983;-62
2021/08/30 02:08:40;;;;;;;;;;;;;;;17.50;100.00;95975.63;5048620;28;20004;-62
2021/08/30 02:11:10;;;;;;;;;;;;;;;17.19;100.00;95979.59;5050560;28;19972;-63
2021/08/30 02:13:38;;;;;;;;;;;;;;;17.27;100.00;95971.47;5047019;28;19960;-63
2021/08/30 02:16:06;;;;;;;;;;;;;;;17.23;100.00;95970.19;5048629;28;19960;-62
2021/08/30 02:18:35;;;;;;;;;;;;;;;17.31;100.00;95972.69;5043310;28;19968;-58
2021/08/30 02:21:05;;;;;;;;;;;;;;;17.15;100.00;95972.22;5047282;28;19971;-62
2021/08/30 02:23:35;;;;;;;;;;;;;;;17.32;100.00;95968.19;5049346;28;19979;-62
2021/08/30 02:26:06;;;;;;;;;;;;;;;17.09;100.00;95976.47;5048461;28;20550;-61
2021/08/30 02:28:34;;;;;;;;;;;;;;;17.11;100.00;95968.31;5046431;28;20378;-58
2021/08/30 02:31:02;;;;;;;;;;;;;;;17.18;100.00;95967.31;5048812;28;19972;-62
2021/08/30 02:33:30;;;;;;;;;;;;;;;17.29;100.00;95964.06;5046942;28;20566;-62
2021/08/30 02:36:03;;;;;;;;;;;;;;;16.87;100.00;95967.75;5048139;28;19972;-62
2021/08/30 02:38:31;;;;;;;;;;;;;;;17.14;100.00;95960.72;5048863;28;20366;-63
2021/08/30 02:41:01;;;;;;;;;;;;;;;17.38;100.00;95955.88;5045440;28;19963;-63
2021/08/30 02:43:29;;;;;;;;;;;;;;;17.17;100.00;95965.66;5051691;28;19979;-62
2021/08/30 02:45:57;;;;;;;;;;;;;;;17.31;100.00;95955.88;5047224;28;19972;-63
2021/08/30 02:48:25;;;;;;;;;;;;;;;16.89;100.00;95955.06;5046728;28;20359;-63
2021/08/30 02:50:53;;;;;;;;;;;;;;;17.26;100.00;95961.78;5049477;28;19983;-63
2021/08/30 02:53:21;;;;;;;;;;;;;;;16.88;100.00;95953.41;5048364;28;19956;-62
2021/08/30 02:55:50;;;;;;;;;;;;;;;17.52;100.00;95947.75;5045298;28;20063;-62
2021/08/30 02:58:19;;;;;;;;;;;;;;;17.16;100.00;95950.69;5047315;28;19971;-62
2021/08/30 03:00:47;;;;;;;;;;;;;;;16.81;100.00;95947.22;5050183;28;19959;-63
2021/08/30 03:03:16;;;;;;;;;;;;;;;17.06;100.00;95942.22;5046414;28;19967;-63
2021/08/30 03:05:44;;;;;;;;;;;;;;;17.22;100.00;95941.91;5047188;28;19979;-62
2021/08/30 03:08:12;;;;;;;;;;;;;;;17.17;100.00;95946.16;5048195;28;19971;-61
2021/08/30 03:10:40;;;;;;;;;;;;;;;17.27;100.00;95939.47;5046114;28;19924;-63
2021/08/30 03:13:08;;;;;;;;;;;;;;;16.99;100.00;95942.19;5045331;28;19964;-58
2021/08/30 03:15:38;;;;;;;;;;;;;;;17.03;100.00;95937.28;5043929;28;19956;-62
2021/08/30 03:18:07;;;;;;;;;;;;;;;17.28;100.00;95935.78;5049192;28;19968;-63
2021/08/30 03:20:35;;;;;;;;;;;;;;;17.22;100.00;95933.09;5047638;28;19967;-62
2021/08/30 03:23:03;;;;;;;;;;;;;;;17.07;100.00;95939.38;5046762;28;20151;-62
2021/08/30 03:25:33;;;;;;;;;;;;;;;17.25;100.00;95933.50;5048282;28;20425;-61
2021/08/30 03:28:02;;;;;;;;;;;;;;;17.20;100.00;95935.94;5044781;28;19983;-63
2021/08/30 03:30:30;;;;;;;;;;;;;;;16.75;100.00;95932.84;5043098;28;19963;-62
2021/08/30 03:32:59;;;;;;;;;;;;;;;17.07;100.00;95926.06;5048651;28;19956;-63
2021/08/30 03:35:28;;;;;;;;;;;;;;;16.76;100.00;95928.38;5043437;28;19983;-62
2021/08/30 03:37:56;;;;;;;;;;;;;;;17.26;100.00;95929.00;5046761;28;19951;-63
2021/08/30 03:40:24;;;;;;;;;;;;;;;16.96;100.00;95925.78;5042106;28;19983;-62
2021/08/30 03:42:52;;;;;;;;;;;;;;;17.04;100.00;95926.47;5044318;28;19960;-60
2021/08/30 03:45:20;;;;;;;;;;;;;;;17.25;100.00;95932.69;5044964;28;19956;-63
2021/08/30 03:47:48;;;;;;;;;;;;;;;16.88;100.00;95931.28;5048052;28;20402;-62
2021/08/30 03:50:18;;;;;;;;;;;;;;;16.93;100.00;95926.19;5047865;28;19956;-62
2021/08/30 03:52:46;;;;;;;;;;;;;;;16.98;100.00;95935.22;5048817;28;19975;-62
2021/08/30 03:55:14;;;;;;;;;;;;;;;17.45;100.00;95930.09;5045825;28;19961;-62
2021/08/30 03:57:42;;;;;;;;;;;;;;;17.32;100.00;95929.03;5046588;28;20367;-57
2021/08/30 04:00:11;;;;;;;;;;;;;;;16.89;100.00;95928.41;5044975;28;19960;-62
2021/08/30 04:02:40;;;;;;;;;;;;;;;17.30;100.00;95930.25;5042193;28;19971;-63
2021/08/30 04:05:09;;;;;;;;;;;;;;;17.23;100.00;95929.41;5049448;28;19956;-62
2021/08/30 04:07:38;;;;;;;;;;;;;;;16.82;100.00;95933.72;5047170;28;20579;-61
2021/08/30 04:10:07;;;;;;;;;;;;;;;16.99;100.00;95926.22;5043560;28;20347;-59
2021/08/30 04:12:38;;;;;;;;;;;;;;;17.21;100.00;95923.47;5036232;28;20366;-57
2021/08/30 04:15:07;;;;;;;;;;;;;;;16.89;100.00;95923.09;5029829;28;19960;-62
2021/08/30 04:17:35;;;;;;;;;;;;;;;17.25;100.00;95930.03;5042529;28;20359;-62
2021/08/30 04:20:03;;;;;;;;;;;;;;;17.04;100.00;95925.66;5024086;28;21779;-60
2021/08/30 04:22:35;;;;;;;;;;;;;;;17.39;100.00;95926.38;5040557;28;19971;-62
2021/08/30 04:25:04;;;;;;;;;;;;;;;17.69;100.00;95928.72;5033212;28;19960;-63
2021/08/30 04:27:32;;;;;;;;;;;;;;;17.43;100.00;95924.13;5037095;28;20004;-63
2021/08/30 04:30:00;;;;;;;;;;;;;;;17.72;100.00;95915.81;5045508;28;20445;-63
2021/08/30 04:32:32;;;;;;;;;;;;;;;17.23;100.00;95922.22;5044157;28;19964;-63
2021/08/30 04:35:00;;;;;;;;;;;;;;;17.54;100.00;95920.88;5045132;28;19959;-63
2021/08/30 04:37:28;;;;;;;;;;;;;;;17.66;100.00;95929.94;5027556;28;19953;-61
2021/08/30 04:39:56;;;;;;;;;;;;;;;17.83;100.00;95925.09;5023985;28;19964;-62
2021/08/30 04:42:26;;;;;;;;;;;;;;;17.44;100.00;95920.44;5031410;28;20406;-63
2021/08/30 04:44:54;;;;;;;;;;;;;;;17.66;100.00;95913.94;5054038;28;19999;-63
2021/08/30 04:47:22;;;;;;;;;;;;;;;17.82;100.00;95911.94;5025939;28;20003;-63
2021/08/30 04:49:50;;;;;;;;;;;;;;;17.29;100.00;95917.94;5018228;28;19960;-63
2021/08/30 04:52:18;;;;;;;;;;;;;;;17.93;100.00;95906.84;5019305;28;19959;-63
2021/08/30 04:54:46;;;;;;;;;;;;;;;18.00;100.00;95905.00;5016696;28;19971;-63
2021/08/30 04:57:14;;;;;;;;;;;;;;;17.59;100.00;95909.63;5026496;28;19975;-60
2021/08/30 04:59:43;;;;;;;;;;;;;;;17.89;100.00;95896.75;5015235;28;19983;-63
2021/08/30 05:02:11;;;;;;;;;;;;;;;18.05;100.00;95885.69;5022980;28;20374;-62
2021/08/30 05:04:40;;;;;;;;;;;;;;;18.26;100.00;95879.31;5022848;28;20356;-61
2021/08/30 05:07:08;;;;;;;;;;;;;;;18.17;100.00;95883.22;5036485;28;19960;-63
2021/08/30 05:09:36;;;;;;;;;;;;;;;17.91;100.00;95881.38;5043476;28;19968;-63
2021/08/30 05:12:04;;;;;;;;;;;;;;;17.58;100.00;95876.78;5044928;28;19972;-62
2021/08/30 05:14:34;;;;;;;;;;;;;;;17.93;100.00;95869.50;5047111;28;20013;-63
2021/08/30 05:17:04;;;;;;;;;;;;;;;17.50;100.00;95867.16;5042840;28;20427;-63
2021/08/30 05:19:32;;;;;;;;;;;;;;;17.94;100.00;95856.97;5042977;28;19979;-63
2021/08/30 05:22:00;;;;;;;;;;;;;;;18.02;100.00;95848.75;5048118;28;19999;-63
2021/08/30 05:24:28;;;;;;;;;;;;;;;18.15;100.00;95843.41;5042575;28;19957;-63
2021/08/30 05:26:56;;;;;;;;;;;;;;;17.44;100.00;95857.28;5048092;28;19979;-62
2021/08/30 05:29:24;;;;;;;;;;;;;;;17.21;100.00;95851.53;5048892;28;20397;-63
2021/08/30 05:31:52;;;;;;;;;;;;;;;17.49;100.00;95848.69;5043011;28;20339;-63
2021/08/30 05:34:22;;;;;;;;;;;;;;;17.28;100.00;95852.34;5040945;28;20561;-63
2021/08/30 05:36:50;;;;;;;;;;;;;;;17.43;100.00;95838.84;5044206;28;19960;-59
2021/08/30 05:39:18;;;;;;;;;;;;;;;17.36;100.00;95846.81;5052277;28;19971;-62
2021/08/30 05:41:46;;;;;;;;;;;;;;;17.82;100.00;95829.25;5048434;28;19975;-63
2021/08/30 05:44:14;;;;;;;;;;;;;;;17.61;100.00;95833.72;5054075;28;19959;-62
2021/08/30 05:46:42;;;;;;;;;;;;;;;16.84;100.00;95840.31;5047071;28;19960;-62
2021/08/30 05:49:10;;;;;;;;;;;;;;;16.94;100.00;95835.44;5048225;28;19967;-63
2021/08/30 05:51:40;;;;;;;;;;;;;;;17.39;100.00;95824.28;5045993;28;19975;-62
2021/08/30 05:54:08;;;;;;;;;;;;;;;17.31;100.00;95815.47;5053656;28;20502;-63
2021/08/30 05:56:36;;;;;;;;;;;;;;;16.93;100.00;95819.66;5053407;28;20428;-63
2021/08/30 05:59:04;;;;;;;;;;;;;;;17.06;100.00;95809.84;5046972;28;20480;-62
2021/08/30 06:01:35;;;;;;;;;;;;;;;16.70;100.00;95818.13;5049379;28;19979;-63
2021/08/30 06:04:04;;;;;;;;;;;;;;;17.10;100.00;95807.59;5047550;28;19960;-63
2021/08/30 06:06:32;;;;;;;;;;;;;;;16.63;100.00;95811.13;5049590;28;19983;-61
2021/08/30 06:09:02;;;;;;;;;;;;;;;17.26;100.00;95806.41;5040502;28;19965;-62
2021/08/30 06:11:30;;;;;;;;;;;;;;;16.71;100.00;95795.78;5026224;28;19972;-62
2021/08/30 06:13:58;;;;;;;;;;;;;;;16.83;100.00;95806.72;5051453;28;19956;-60
2021/08/30 06:16:26;;;;;;;;;;;;;;;17.12;100.00;95797.59;5043408;28;19964;-63
2021/08/30 06:18:54;;;;;;;;;;;;;;;16.81;100.00;95809.56;5048405;28;19968;-63
2021/08/30 06:21:22;;;;;;;;;;;;;;;16.85;100.00;95805.50;5052945;28;19968;-63
2021/08/30 06:23:50;;;;;;;;;;;;;;;16.45;100.00;95769.91;5049233;28;20347;-63
2021/08/30 06:26:20;;;;;;;;;;;;;;;16.65;100.00;95791.25;5051458;28;19960;-63
2021/08/30 06:28:48;;;;;;;;;;;;;;;16.64;100.00;95794.94;5045858;28;19965;-62
2021/08/30 06:31:16;;;;;;;;;;;;;;;16.37;100.00;95780.69;5048243;28;19983;-62
2021/08/30 06:33:44;;;;;;;;;;;;;;;16.68;100.00;95806.00;5048291;28;19944;-63
2021/08/30 06:36:12;;;;;;;;;;;;;;;16.68;100.00;95803.34;5049989;28;20358;-60
2021/08/30 06:38:40;;;;;;;;;;;;;;;16.65;100.00;95798.41;5050353;28;19955;-63
2021/08/30 06:41:08;;;;;;;;;;;;;;;17.01;100.00;95804.31;5051136;28;19959;-62
2021/08/30 06:43:38;;;;;;;;;;;;;;;17.39;100.00;95805.63;5047930;28;19957;-62
2021/08/30 06:46:06;;;;;;;;;;;;;;;17.36;100.00;95808.69;5049058;28;19953;-63
2021/08/30 06:48:34;;;;;;;;;;;;;;;17.97;100.00;95803.22;5048767;28;20405;-60
2021/08/30 06:51:02;;;;;;;;;;;;;;;18.08;100.00;95810.56;5048171;28;19952;-63
2021/08/30 06:53:30;;;;;;;;;;;;;;;17.92;100.00;95832.34;5046398;28;19991;-63
2021/08/30 06:55:58;;;;;;;;;;;;;;;18.49;100.00;95844.19;5049687;28;19972;-61
2021/08/30 06:58:27;;;;;;;;;;;;;;;18.21;100.00;95860.44;5044820;28;20435;-63
2021/08/30 07:00:56;;;;;;;;;;;;;;;18.21;100.00;95873.78;5048104;28;19971;-63
2021/08/30 07:03:25;;;;;;;;;;;;;;;18.64;100.00;95879.47;5051153;28;19967;-62
2021/08/30 07:05:53;;;;;;;;;;;;;;;18.68;100.00;95886.00;5047457;28;20314;-62
2021/08/30 07:08:21;;;;;;;;;;;;;;;19.12;100.00;95895.16;5028570;28;19972;-63
2021/08/30 07:10:49;;;;;;;;;;;;;;;19.60;100.00;95893.91;5042005;28;19963;-62
2021/08/30 07:13:17;;;;;;;;;;;;;;;19.63;100.00;95897.00;5047808;28;19956;-63
2021/08/30 07:15:47;;;;;;;;;;;;;;;20.18;100.00;95900.94;5041157;28;19966;-63
2021/08/30 07:18:18;;;;;;;;;;;;;;;21.24;100.00;95907.94;5030165;28;19956;-64
2021/08/30 07:20:46;;;;;;;;;;;;;;;20.53;100.00;95906.63;5048011;28;19964;-63
2021/08/30 07:23:15;;;;;;;;;;;;;;;20.22;100.00;95908.31;5050575;28;19964;-63
2021/08/30 07:25:43;;;;;;;;;;;;;;;20.31;100.00;95916.91;5050584;28;20032;-63
2021/08/30 07:28:11;;;;;;;;;;;;;;;20.16;100.00;95925.22;5046668;28;19959;-64
2021/08/30 07:30:39;;;;;;;;;;;;;;;20.29;100.00;95924.31;5045111;28;19952;-63
2021/08/30 07:33:07;;;;;;;;;;;;;;;20.83;100.00;95922.81;5052037;28;19966;-64
2021/08/30 07:35:40;;;;;;;;;;;;;;;20.53;100.00;95926.19;5041997;28;20397;-62
2021/08/30 07:38:08;;;;;;;;;;;;;;;20.66;100.00;95925.25;5043906;28;19972;-61
2021/08/30 07:40:36;;;;;;;;;;;;;;;21.22;100.00;95926.91;5047465;28;19975;-64
2021/08/30 07:43:04;;;;;;;;;;;;;;;21.28;100.00;95935.94;5045388;28;19972;-63
2021/08/30 07:45:32;;;;;;;;;;;;;;;21.02;100.00;95932.50;5023631;28;19979;-61
2021/08/30 07:48:01;;;;;;;;;;;;;;;20.90;100.00;95947.69;5043257;28;19964;-63
2021/08/30 07:50:29;;;;;;;;;;;;;;;20.81;100.00;95949.81;5043313;28;20043;-64
2021/08/30 07:52:58;;;;;;;;;;;;;;;21.09;100.00;95952.03;5041073;28;19976;-63
2021/08/30 07:55:35;;;;;;;;;;;;;;;21.26;100.00;95957.59;5024955;28;19968;-63
2021/08/30 07:58:03;;;;;;;;;;;;;;;21.32;100.00;95950.53;5031797;28;20010;-64
2021/08/30 08:00:31;;;;;;;;;;;;;;;21.33;100.00;95954.84;5034366;28;19967;-63
2021/08/30 08:02:59;;;;;;;;;;;;;;;22.04;100.00;95959.50;5023686;28;19960;-63
2021/08/30 08:05:27;;;;;;;;;;;;;;;21.58;100.00;95962.84;5051435;28;19975;-63
2021/08/30 08:07:56;;;;;;;;;;;;;;;21.22;100.00;95963.63;5042876;28;19964;-64
2021/08/30 08:10:25;;;;;;;;;;;;;;;21.42;100.00;95971.50;5041475;28;19983;-60
2021/08/30 08:12:53;;;;;;;;;;;;;;;21.45;100.00;95973.72;5038920;28;19957;-63
2021/08/30 08:15:21;;;;;;;;;;;;;;;20.60;100.00;95975.16;5039024;28;19975;-61
2021/08/30 08:17:49;;;;;;;;;;;;;;;21.12;100.00;95982.91;5039984;28;20040;-62
2021/08/30 08:20:17;;;;;;;;;;;;;;;21.46;100.00;95981.53;5049906;28;19976;-64
2021/08/30 08:22:45;;;;;;;;;;;;;;;21.29;100.00;95975.94;5042529;28;20387;-62
2021/08/30 08:25:13;;;;;;;;;;;;;;;21.63;100.00;95981.75;5044129;28;19964;-61
2021/08/30 08:27:43;;;;;;;;;;;;;;;22.20;100.00;95993.00;5045277;28;19998;-63
2021/08/30 08:30:11;;;;;;;;;;;;;;;22.01;100.00;95994.06;5043237;28;20047;-63
2021/08/30 08:32:41;;;;;;;;;;;;;;;21.44;100.00;95996.22;5041040;28;19987;-63
2021/08/30 08:35:09;;;;;;;;;;;;;;;21.71;100.00;95996.72;5049231;28;19983;-60
2021/08/30 08:37:37;;;;;;;;;;;;;;;21.34;100.00;95996.75;5041993;28;20612;-63
2021/08/30 08:40:06;;;;;;;;;;;;;;;21.24;100.00;95996.44;5042870;28;19980;-63
2021/08/30 08:42:54;;;;;;;;;;;;;;;21.89;100.00;95996.69;5039495;28;19994;-63
2021/08/30 08:45:22;;;;;;;;;;;;;;;21.39;100.00;96001.44;5053968;28;19983;-60
2021/08/30 08:47:50;;;;;;;;;;;;;;;20.82;100.00;96015.00;5044671;28;19964;-61
2021/08/30 08:50:20;;;;;;;;;;;;;;;20.29;100.00;96018.03;5047690;28;19968;-59
2021/08/30 08:52:49;;;;;;;;;;;;;;;20.02;100.00;96023.53;5036099;28;19968;-62
2021/08/30 08:55:17;;;;;;;;;;;;;;;19.95;100.00;96021.94;5045511;28;19956;-62
2021/08/30 08:57:45;;;;;;;;;;;;;;;19.58;100.00;96030.53;5042106;28;20370;-60
2021/08/30 09:00:15;;;;;;;;;;;;;;;19.92;100.00;96031.22;5042114;28;20358;-61
2021/08/30 09:02:46;;;;;;;;;;;;;;;20.17;100.00;96033.16;5046046;28;19972;-62
2021/08/30 09:05:21;;;;;;;;;;;;;;;20.09;100.00;96032.34;5049286;28;19948;-61
2021/08/30 09:07:49;;;;;;;;;;;;;;;20.67;100.00;96027.88;5044463;28;19971;-62
2021/08/30 09:10:19;;;;;;;;;;;;;;;21.15;100.00;96035.28;5039638;28;19983;-63
2021/08/30 09:12:48;;;;;;;;;;;;;;;21.21;100.00;96029.06;5041836;28;20233;-61
2021/08/30 09:15:20;;;;;;;;;;;;;;;21.52;100.00;96041.53;5040699;28;20383;-62
2021/08/30 09:17:48;;;;;;;;;;;;;;;21.36;100.00;96028.72;5046683;28;19980;-61
2021/08/30 09:20:17;;;;;;;;;;;;;;;21.00;100.00;96041.81;5048153;28;19968;-63
2021/08/30 09:22:45;;;;;;;;;;;;;;;21.59;100.00;96039.59;5045638;28;19975;-63
2021/08/30 09:25:13;;;;;;;;;;;;;;;21.34;100.00;96045.03;5038207;28;19972;-63
2021/08/30 09:27:44;;;;;;;;;;;;;;;21.34;100.00;96047.72;5043763;28;19967;-62
2021/08/30 09:30:13;;;;;;;;;;;;;;;20.81;100.00;96054.34;5037834;28;19968;-62
2021/08/30 09:32:43;;;;;;;;;;;;;;;20.95;100.00;96055.06;5042019;28;19963;-62
2021/08/30 09:35:12;;;;;;;;;;;;;;;20.82;100.00;96052.50;5046839;28;19956;-63
2021/08/30 09:37:40;;;;;;;;;;;;;;;20.60;100.00;96054.72;5041028;28;19960;-61
2021/08/30 09:40:09;;;;;;;;;;;;;;;20.88;100.00;96056.16;5038603;28;19972;-63
2021/08/30 09:42:40;;;;;;;;;;;;;;;21.20;100.00;96049.69;5044885;28;19956;-61
2021/08/30 09:45:09;;;;;;;;;;;;;;;21.43;100.00;96046.38;5040245;28;19968;-63
2021/08/30 09:47:37;;;;;;;;;;;;;;;21.12;100.00;96049.16;5041578;28;19971;-61
2021/08/30 09:50:10;;;;;;;;;;;;;;;20.49;100.00;96058.09;5047456;28;21386;-62
2021/08/30 09:52:38;;;;;;;;;;;;;;;20.93;100.00;96051.78;5041708;28;19956;-62
2021/08/30 09:55:06;;;;;;;;;;;;;;;20.86;100.00;96051.84;5039814;28;19963;-63
2021/08/30 09:57:35;;;;;;;;;;;;;;;21.31;100.00;96053.50;5037926;28;19920;-59
2021/08/30 10:00:04;;;;;;;;;;;;;;;21.51;100.00;96054.13;5042091;28;19960;-63
2021/08/30 10:02:32;;;;;;;;;;;;;;;21.53;100.00;96056.59;5042694;28;19960;-63
2021/08/30 10:05:01;;;;;;;;;;;;;;;21.61;100.00;96058.16;5041482;28;19964;-62
2021/08/30 10:07:32;;;;;;;;;;;;;;;21.90;100.00;96053.91;5046719;28;20349;-62
2021/08/30 10:10:00;;;;;;;;;;;;;;;22.05;100.00;96059.69;5035083;28;20018;-63
2021/08/30 10:12:28;;;;;;;;;;;;;;;21.09;100.00;96058.44;5055472;28;19971;-62
2021/08/30 10:14:56;;;;;;;;;;;;;;;21.08;100.00;96057.63;5044349;28;19968;-63
2021/08/30 10:17:24;;;;;;;;;;;;;;;20.75;100.00;96062.44;5045406;28;19956;-62
2021/08/30 10:19:56;;;;;;;;;;;;;;;20.54;100.00;96059.13;5038501;28;20023;-62
2021/08/30 10:22:25;;;;;;;;;;;;;;;20.80;100.00;96063.44;5040253;28;19975;-63
2021/08/30 10:24:54;;;;;;;;;;;;;;;20.49;100.00;96069.63;5045566;28;19963;-61
2021/08/30 10:27:28;;;;;;;;;;;;;;;19.95;100.00;96070.94;5041753;28;19970;-63
2021/08/30 10:30:03;;;;;;;;;;;;;;;20.76;100.00;96074.81;5049761;28;19949;-63
2021/08/30 10:32:36;;;;;;;;;;;;;;;21.06;100.00;96072.31;5042086;28;19987;-60
2021/08/30 10:35:11;;;;;;;;;;;;;;;21.09;100.00;96077.22;5020660;28;20327;-62
2021/08/30 10:37:47;;;;;;;;;;;;;;;21.25;100.00;96073.97;5037351;28;19967;-62
2021/08/30 10:40:17;;;;;;;;;;;;;;;21.05;100.00;96074.16;5029762;28;19972;-62
2021/08/30 10:42:45;;;;;;;;;;;;;;;20.61;100.00;96092.03;5032558;28;19964;-63
2021/08/30 10:45:13;;;;;;;;;;;;;;;20.85;100.00;96084.22;5047049;28;19964;-61
2021/08/30 10:47:41;;;;;;;;;;;;;;;21.41;100.00;96082.53;5044021;28;19971;-63
2021/08/30 10:50:21;;;;;;;;;;;;;;;21.59;100.00;96076.34;5044261;28;20399;-63
2021/08/30 10:52:50;;;;;;;;;;;;;;;21.97;100.00;96082.28;5038533;28;20367;-62
2021/08/30 10:55:20;;;;;;;;;;;;;;;22.14;100.00;96081.69;5044295;28;20794;-62
2021/08/30 10:57:49;;;;;;;;;;;;;;;22.35;100.00;96093.81;5042824;28;19963;-60
2021/08/30 11:00:17;;;;;;;;;;;;;;;22.28;100.00;96092.03;5038547;28;19952;-62
2021/08/30 11:02:46;;;;;;;;;;;;;;;22.28;100.00;96097.41;5015752;28;20526;-62
2021/08/30 11:05:14;;;;;;;;;;;;;;;22.73;100.00;96093.47;5045707;28;19952;-63
2021/08/30 11:07:42;;;;;;;;;;;;;;;22.92;100.00;96097.78;5042717;28;19976;-63
2021/08/30 11:10:11;;;;;;;;;;;;;;;23.30;100.00;96093.84;5045683;28;19968;-62
2021/08/30 11:12:43;;;;;;;;;;;;;;;23.68;100.00;96095.25;5049198;28;19960;-62
2021/08/30 11:15:11;;;;;;;;;;;;;;;24.03;100.00;96084.38;5042172;28;20354;-63
2021/08/30 11:17:40;;;;;;;;;;;;;;;23.71;100.00;96097.47;5050129;28;19971;-63
2021/08/30 11:20:09;;;;;;;;;;;;;;;24.27;98.52;96085.13;5048745;28;19968;-61
2021/08/30 11:22:38;;;;;;;;;;;;;;;23.73;100.00;96087.25;5047340;28;19963;-62
2021/08/30 11:25:11;;;;;;;;;;;;;;;24.41;98.77;96090.28;5041132;28;19968;-63
2021/08/30 11:27:39;;;;;;;;;;;;;;;24.43;100.00;96088.94;5046372;28;19963;-62
2021/08/30 11:30:11;;;;;;;;;;;;;;;24.58;96.72;96091.94;5039027;28;19976;-62
2021/08/30 11:32:40;;;;;;;;;;;;;;;24.84;90.28;96095.06;5041641;28;19983;-63
2021/08/30 11:35:09;;;;;;;;;;;;;;;24.81;93.06;96087.47;5047069;28;19974;-63
2021/08/30 11:37:38;;;;;;;;;;;;;;;24.79;88.32;96097.69;5039535;28;19978;-63
2021/08/30 11:40:07;;;;;;;;;;;;;;;24.67;98.82;96092.34;5038137;28;19960;-62
2021/08/30 11:42:36;;;;;;;;;;;;;;;24.16;97.79;96094.09;5049876;28;19991;-62
2021/08/30 11:45:04;;;;;;;;;;;;;;;23.95;100.00;96097.41;5041413;28;19979;-63
2021/08/30 11:47:34;;;;;;;;;;;;;;;23.28;99.06;96101.31;5047751;28;20386;-63
2021/08/30 11:50:03;;;;;;;;;;;;;;;23.67;100.00;96099.81;5053665;28;19960;-62
2021/08/30 11:52:33;;;;;;;;;;;;;;;24.26;93.54;96090.75;5042181;28;20161;-63
2021/08/30 11:55:04;;;;;;;;;;;;;;;24.26;100.00;96099.69;5038158;28;19960;-58
2021/08/30 11:57:39;;;;;;;;;;;;;;;23.54;100.00;96109.97;5043108;28;20009;-61
2021/08/30 12:00:07;;;;;;;;;;;;;;;23.92;100.00;96109.50;5040050;28;19975;-60
2021/08/30 12:02:37;;;;;;;;;;;;;;;23.91;100.00;96107.84;5049366;28;20287;-60
2021/08/30 12:05:06;;;;;;;;;;;;;;;24.00;100.00;96111.00;5038687;28;20210;-62
2021/08/30 12:07:35;;;;;;;;;;;;;;;24.39;89.39;96125.50;5044789;28;20304;-62
2021/08/30 12:10:03;;;;;;;;;;;;;;;24.24;89.00;96114.44;5040091;28;19971;-62
2021/08/30 12:12:34;;;;;;;;;;;;;;;22.72;100.00;96124.94;5041119;28;20393;-61
2021/08/30 12:15:04;;;;;;;;;;;;;;;22.14;100.00;96132.72;5043955;28;19964;-63
2021/08/30 12:17:33;;;;;;;;;;;;;;;22.48;100.00;96126.72;5047476;28;19976;-63
2021/08/30 12:20:05;;;;;;;;;;;;;;;22.21;100.00;96131.59;5043608;28;19975;-61
2021/08/30 12:22:34;;;;;;;;;;;;;;;22.00;100.00;96135.53;5039863;28;20363;-62
2021/08/30 12:25:03;;;;;;;;;;;;;;;21.49;100.00;96133.22;5043295;28;20426;-63
2021/08/30 12:27:32;;;;;;;;;;;;;;;21.81;100.00;96140.09;5039053;28;19952;-63
2021/08/30 12:30:14;;;;;;;;;;;;;;;22.30;100.00;96133.97;5042542;28;20028;-63
2021/08/30 12:32:49;;;;;;;;;;;;;;;22.15;100.00;96137.06;5037663;28;20198;-63
2021/08/30 12:35:22;;;;;;;;;;;;;;;21.99;100.00;96133.91;5041770;28;19952;-63
2021/08/30 12:37:51;;;;;;;;;;;;;;;22.32;100.00;96132.72;5025996;28;19976;-63
2021/08/30 12:40:19;;;;;;;;;;;;;;;22.87;100.00;96135.25;5021822;28;19960;-63
2021/08/30 12:42:47;;;;;;;;;;;;;;;22.79;100.00;96138.28;5015133;28;19972;-63
2021/08/30 12:45:15;;;;;;;;;;;;;;;22.91;100.00;96130.22;5022839;28;19972;-63
2021/08/30 12:47:44;;;;;;;;;;;;;;;23.15;100.00;96141.88;5042773;28;19972;-60
2021/08/30 12:50:12;;;;;;;;;;;;;;;24.31;100.00;96131.28;5017608;28;19957;-63